sensor_id;sensor_type;location;lat;lon;timestamp;pressure;altitude;pressure_sealevel;temperature;humidity
50087;BME280;35967;50.718;7.050;2023-04-01T00:07:46;98736.09;;;11.84;71.67
50087;BME280;35967;50.718;7.050;2023-04-01T00:17:49;98730.94;;;11.84;72.03
50087;BME280;35967;50.718;7.050;2023-04-01T00:27:54;98734.41;;;11.68;72.85
50087;BME280;35967;50.718;7.050;2023-04-01T00:37:57;98726.56;;;11.70;72.35
50087;BME280;35967;50.718;7.050;2023-04-01T00:48:05;98721.25;;;11.73;72.16
50087;BME280;35967;50.718;7.050;2023-04-01T00:58:14;98721.75;;;11.80;71.91
50087;BME280;35967;50.718;7.050;2023-04-01T01:08:25;98716.38;;;11.83;72.37
50087;BME280;35967;50.718;7.050;2023-04-01T01:18:35;98712.13;;;11.67;72.38
50087;BME280;35967;50.718;7.050;2023-04-01T01:28:50;98706.25;;;11.65;72.54
50087;BME280;35967;50.718;7.050;2023-04-01T01:39:02;98700.41;;;11.62;73.11
50087;BME280;35967;50.718;7.050;2023-04-01T01:49:06;98710.00;;;11.60;72.90
50087;BME280;35967;50.718;7.050;2023-04-01T01:59:12;98697.56;;;11.52;72.17
50087;BME280;35967;50.718;7.050;2023-04-01T02:09:17;98701.03;;;11.51;71.89
50087;BME280;35967;50.718;7.050;2023-04-01T02:19:26;98698.47;;;11.51;71.64
50087;BME280;35967;50.718;7.050;2023-04-01T02:29:33;98696.50;;;11.40;74.41
50087;BME280;35967;50.718;7.050;2023-04-01T02:39:42;98705.41;;;11.34;75.58
50087;BME280;35967;50.718;7.050;2023-04-01T02:49:45;98700.22;;;11.20;76.25
50087;BME280;35967;50.718;7.050;2023-04-01T02:59:49;98706.97;;;11.07;78.87
50087;BME280;35967;50.718;7.050;2023-04-01T03:09:52;98703.84;;;11.01;80.08
50087;BME280;35967;50.718;7.050;2023-04-01T03:19:57;98690.56;;;10.93;80.75
50087;BME280;35967;50.718;7.050;2023-04-01T03:30:00;98696.59;;;11.08;79.85
50087;BME280;35967;50.718;7.050;2023-04-01T03:40:07;98685.53;;;11.06;78.62
50087;BME280;35967;50.718;7.050;2023-04-01T03:50:10;98685.63;;;11.04;76.50
50087;BME280;35967;50.718;7.050;2023-04-01T04:00:15;98700.56;;;11.14;76.80
50087;BME280;35967;50.718;7.050;2023-04-01T04:10:22;98700.16;;;11.05;76.81
50087;BME280;35967;50.718;7.050;2023-04-01T04:20:28;98702.97;;;11.17;76.64
50087;BME280;35967;50.718;7.050;2023-04-01T04:30:31;98705.16;;;11.09;76.71
50087;BME280;35967;50.718;7.050;2023-04-01T04:40:37;98708.28;;;11.14;75.92
50087;BME280;35967;50.718;7.050;2023-04-01T04:50:40;98709.88;;;11.16;77.32
50087;BME280;35967;50.718;7.050;2023-04-01T05:00:45;98713.13;;;11.04;79.39
50087;BME280;35967;50.718;7.050;2023-04-01T05:10:57;98725.09;;;10.89;82.04
50087;BME280;35967;50.718;7.050;2023-04-01T05:21:01;98732.50;;;10.79;83.23
50087;BME280;35967;50.718;7.050;2023-04-01T05:31:05;98740.88;;;10.83;82.63
50087;BME280;35967;50.718;7.050;2023-04-01T05:41:14;98744.94;;;10.71;85.19
50087;BME280;35967;50.718;7.050;2023-04-01T05:51:20;98748.19;;;10.75;84.54
50087;BME280;35967;50.718;7.050;2023-04-01T06:01:25;98756.47;;;10.80;84.94
50087;BME280;35967;50.718;7.050;2023-04-01T06:11:34;98762.63;;;10.77;85.96
50087;BME280;35967;50.718;7.050;2023-04-01T06:32:33;98787.53;;;10.77;88.33
50087;BME280;35967;50.718;7.050;2023-04-01T06:42:56;98791.59;;;10.81;88.09
50087;BME280;35967;50.718;7.050;2023-04-01T06:53:38;98785.84;;;11.70;91.33
50087;BME280;35967;50.718;7.050;2023-04-01T07:04:11;98797.16;;;11.83;93.00
50087;BME280;35967;50.718;7.050;2023-04-01T07:14:22;98808.06;;;12.03;92.31
50087;BME280;35967;50.718;7.050;2023-04-01T07:24:32;98814.94;;;11.26;90.68
50087;BME280;35967;50.718;7.050;2023-04-01T07:34:50;98817.00;;;11.19;91.92
50087;BME280;35967;50.718;7.050;2023-04-01T07:44:59;98831.88;;;10.98;93.73
50087;BME280;35967;50.718;7.050;2023-04-01T07:55:14;98834.97;;;11.04;96.36
50087;BME280;35967;50.718;7.050;2023-04-01T08:05:25;98849.75;;;11.01;95.66
50087;BME280;35967;50.718;7.050;2023-04-01T08:15:38;98859.31;;;11.15;96.19
50087;BME280;35967;50.718;7.050;2023-04-01T08:25:56;98867.94;;;11.14;95.96
50087;BME280;35967;50.718;7.050;2023-04-01T08:36:12;98884.06;;;11.01;95.00
50087;BME280;35967;50.718;7.050;2023-04-01T08:46:46;98888.06;;;11.23;95.34
50087;BME280;35967;50.718;7.050;2023-04-01T08:57:01;98897.94;;;11.15;96.46
50087;BME280;35967;50.718;7.050;2023-04-01T09:07:19;98917.94;;;11.10;97.46
50087;BME280;35967;50.718;7.050;2023-04-01T09:17:50;98926.59;;;11.09;99.10
50087;BME280;35967;50.718;7.050;2023-04-01T09:28:05;98935.63;;;11.00;100.00
50087;BME280;35967;50.718;7.050;2023-04-01T09:38:21;98946.81;;;10.99;100.00
50087;BME280;35967;50.718;7.050;2023-04-01T10:10:32;98976.75;;;11.35;95.03
50087;BME280;35967;50.718;7.050;2023-04-01T10:20:58;98989.63;;;11.35;93.25
50087;BME280;35967;50.718;7.050;2023-04-01T10:31:28;99001.75;;;11.33;93.78
50087;BME280;35967;50.718;7.050;2023-04-01T11:04:17;99008.78;;;11.79;99.07
50087;BME280;35967;50.718;7.050;2023-04-01T11:26:01;99030.06;;;11.82;96.81
50087;BME280;35967;50.718;7.050;2023-04-01T11:36:37;99040.91;;;11.40;94.20
50087;BME280;35967;50.718;7.050;2023-04-01T11:47:00;99048.25;;;11.63;97.98
50087;BME280;35967;50.718;7.050;2023-04-01T11:57:18;99058.63;;;11.46;95.22
50087;BME280;35967;50.718;7.050;2023-04-01T12:07:57;99070.22;;;11.71;96.76
50087;BME280;35967;50.718;7.050;2023-04-01T12:18:13;99079.38;;;11.76;94.35
50087;BME280;35967;50.718;7.050;2023-04-01T12:39:28;99101.16;;;11.71;96.16
50087;BME280;35967;50.718;7.050;2023-04-01T12:49:48;99109.72;;;11.71;98.81
50087;BME280;35967;50.718;7.050;2023-04-01T13:00:13;99122.66;;;11.54;100.00
50087;BME280;35967;50.718;7.050;2023-04-01T13:11:02;99133.88;;;11.35;100.00
50087;BME280;35967;50.718;7.050;2023-04-01T13:21:18;99139.41;;;11.45;100.00
50087;BME280;35967;50.718;7.050;2023-04-01T13:31:32;99145.69;;;11.90;100.00
50087;BME280;35967;50.718;7.050;2023-04-01T13:41:54;99141.13;;;12.13;100.00
50087;BME280;35967;50.718;7.050;2023-04-01T13:52:22;99149.78;;;11.94;97.56
50087;BME280;35967;50.718;7.050;2023-04-01T14:02:51;99174.47;;;12.16;96.27
50087;BME280;35967;50.718;7.050;2023-04-01T14:13:05;99171.75;;;12.51;93.84
50087;BME280;35967;50.718;7.050;2023-04-01T14:23:35;99179.56;;;12.34;89.05
50087;BME280;35967;50.718;7.050;2023-04-01T14:33:47;99189.66;;;12.54;88.06
50087;BME280;35967;50.718;7.050;2023-04-01T14:44:15;99191.91;;;12.44;88.20
50087;BME280;35967;50.718;7.050;2023-04-01T14:54:30;99205.78;;;12.58;89.46
50087;BME280;35967;50.718;7.050;2023-04-01T15:04:47;99221.66;;;12.34;86.93
50087;BME280;35967;50.718;7.050;2023-04-01T15:15:11;99224.59;;;12.28;89.43
50087;BME280;35967;50.718;7.050;2023-04-01T15:25:25;99231.81;;;12.21;89.84
50087;BME280;35967;50.718;7.050;2023-04-01T15:35:39;99252.28;;;12.24;88.88
50087;BME280;35967;50.718;7.050;2023-04-01T15:45:52;99268.84;;;11.67;93.44
50087;BME280;35967;50.718;7.050;2023-04-01T15:56:03;99284.31;;;11.67;94.08
50087;BME280;35967;50.718;7.050;2023-04-01T16:06:21;99298.72;;;11.54;96.33
50087;BME280;35967;50.718;7.050;2023-04-01T16:16:36;99309.72;;;11.58;98.17
50087;BME280;35967;50.718;7.050;2023-04-01T16:26:51;99314.94;;;11.56;99.58
50087;BME280;35967;50.718;7.050;2023-04-01T16:37:00;99326.06;;;11.57;100.00
50087;BME280;35967;50.718;7.050;2023-04-01T16:47:09;99332.72;;;11.43;100.00
50087;BME280;35967;50.718;7.050;2023-04-01T16:57:21;99352.34;;;11.46;99.00
50087;BME280;35967;50.718;7.050;2023-04-01T17:07:37;99361.34;;;11.18;99.06
50087;BME280;35967;50.718;7.050;2023-04-01T17:17:46;99379.53;;;11.15;98.31
50087;BME280;35967;50.718;7.050;2023-04-01T17:27:58;99407.78;;;10.97;97.87
50087;BME280;35967;50.718;7.050;2023-04-01T17:38:15;99413.75;;;10.98;98.08
50087;BME280;35967;50.718;7.050;2023-04-01T17:48:38;99434.09;;;11.04;98.78
50087;BME280;35967;50.718;7.050;2023-04-01T17:58:46;99445.28;;;11.03;98.37
50087;BME280;35967;50.718;7.050;2023-04-01T18:08:58;99467.06;;;10.96;97.71
50087;BME280;35967;50.718;7.050;2023-04-01T18:19:08;99481.50;;;10.79;97.31
50087;BME280;35967;50.718;7.050;2023-04-01T18:29:24;99490.81;;;10.82;97.30
50087;BME280;35967;50.718;7.050;2023-04-01T18:39:35;99511.00;;;10.70;96.17
50087;BME280;35967;50.718;7.050;2023-04-01T18:49:46;99524.16;;;10.85;96.16
50087;BME280;35967;50.718;7.050;2023-04-01T18:59:57;99543.44;;;10.75;95.29
50087;BME280;35967;50.718;7.050;2023-04-01T19:10:15;99555.16;;;10.82;95.54
50087;BME280;35967;50.718;7.050;2023-04-01T19:20:25;99564.94;;;10.73;94.64
50087;BME280;35967;50.718;7.050;2023-04-01T19:30:42;99570.19;;;11.93;100.00
50087;BME280;35967;50.718;7.050;2023-04-01T19:40:53;99574.34;;;10.95;94.48
50087;BME280;35967;50.718;7.050;2023-04-01T19:51:04;99585.13;;;10.62;96.24
50087;BME280;35967;50.718;7.050;2023-04-01T20:01:12;99595.66;;;10.56;98.04
50087;BME280;35967;50.718;7.050;2023-04-01T20:11:29;99614.25;;;10.40;96.54
50087;BME280;35967;50.718;7.050;2023-04-01T20:21:35;99630.13;;;10.52;96.87
50087;BME280;35967;50.718;7.050;2023-04-01T20:31:42;99637.72;;;10.55;97.94
50087;BME280;35967;50.718;7.050;2023-04-01T20:41:57;99644.69;;;10.53;98.59
50087;BME280;35967;50.718;7.050;2023-04-01T20:52:18;99653.50;;;10.22;97.79
50087;BME280;35967;50.718;7.050;2023-04-01T21:02:41;99660.88;;;10.31;97.97
50087;BME280;35967;50.718;7.050;2023-04-01T21:12:53;99670.34;;;10.31;97.20
50087;BME280;35967;50.718;7.050;2023-04-01T21:23:11;99679.56;;;10.36;98.08
50087;BME280;35967;50.718;7.050;2023-04-01T21:33:33;99684.31;;;10.23;97.82
50087;BME280;35967;50.718;7.050;2023-04-01T21:43:53;99696.94;;;10.30;98.42
50087;BME280;35967;50.718;7.050;2023-04-01T21:54:20;99705.78;;;10.22;98.75
50087;BME280;35967;50.718;7.050;2023-04-01T22:04:51;99718.75;;;10.19;99.06
50087;BME280;35967;50.718;7.050;2023-04-01T22:15:03;99713.00;;;10.13;99.20
50087;BME280;35967;50.718;7.050;2023-04-01T22:25:14;99729.09;;;10.18;99.86
50087;BME280;35967;50.718;7.050;2023-04-01T22:35:30;99739.09;;;10.25;99.24
50087;BME280;35967;50.718;7.050;2023-04-01T22:45:53;99737.47;;;10.23;99.36
50087;BME280;35967;50.718;7.050;2023-04-01T22:56:07;99761.34;;;10.26;99.14
50087;BME280;35967;50.718;7.050;2023-04-01T23:06:17;99759.06;;;10.19;99.74
50087;BME280;35967;50.718;7.050;2023-04-01T23:16:28;99772.53;;;10.25;99.74
50087;BME280;35967;50.718;7.050;2023-04-01T23:26:37;99776.69;;;10.30;100.00
50087;BME280;35967;50.718;7.050;2023-04-01T23:36:45;99787.28;;;10.20;100.00
50087;BME280;35967;50.718;7.050;2023-04-01T23:46:49;99807.44;;;10.07;100.00
50087;BME280;35967;50.718;7.050;2023-04-01T23:56:56;99817.41;;;10.17;100.00
